PWSweather.com
Personal Weather Stations
Station Observations

LlefiĆ BadalonaES

Lat: 41.44, Lon: 2.2175

Elevation: 213.254

Station Type: oregon WMR918

http://www.estacionmeteorologicabadalonallefia.com

Latest ConditionsUpdated 11:40:05 AM GMT+01:01 Saturday, Feb 13, 2016
Currently Today's Max Today's Min Today's Average
Temperature 67.8°F19.9°C 67.8°F19.9°C 56.7°F13.7°C 59.0°F15.0°C
Dew Point 48.0°F8.9°C 54.3°F12.4°C 48.0°F8.9°C 51.7°F10.9°C
Winds 5.2 mph W8.4 kmh W 5.2 mph W8.4 kmh W - 1.2 mph 1.9 kmh
Wind Gusts 10.5 mph16.9 kmh 10.5 mph16.9 kmh - -
Humidity 49% 88% 49% 77%
Pressure 29.59 in1002.0 mb 29.62 in1003.0 mb 29.53 in1000.0 mb -
Hour Temp Dew Point Humidity Winds Wind Gusts Pressure Precip Precip Rate Daily Precip Total
11:40 AM 67.8°F19.9°C 48.0°F8.9°C 49% 5.2 mph W8.4 kmh W 10.5 mph16.9 kmh 29.59 in1002.0 mb - 0.00 in0.0 mm 0.00 in0.0 mm
11:30 AM 67.5°F19.7°C 48.7°F9.3°C 51% 2.7 mph W4.3 kmh W 9.9 mph15.9 kmh 29.59 in1002.0 mb - 0.00 in0.0 mm 0.00 in0.0 mm
11:20 AM 67.1°F19.5°C 48.9°F9.4°C 52% 4.9 mph WNW7.9 kmh WNW 9.9 mph15.9 kmh 29.59 in1002.0 mb - 0.00 in0.0 mm 0.00 in0.0 mm
11:10 AM 57.6°F14.2°C 54.0°F12.2°C 88% Calm Calm -- 29.56 in1001.0 mb - 0.00 in0.0 mm 0.00 in0.0 mm
10:10 AM 63.9°F17.7°C 50.1°F10.1°C 61% 4.5 mph SW7.2 kmh SW 7.6 mph12.2 kmh 29.59 in1002.0 mb - 0.00 in0.0 mm 0.00 in0.0 mm
10:00 AM 63.5°F17.5°C 49.8°F9.9°C 61% 4.3 mph WSW6.9 kmh WSW 4.6 mph7.4 kmh 29.59 in1002.0 mb - 0.00 in0.0 mm 0.00 in0.0 mm
09:50 AM 63.5°F17.5°C 50.2°F10.1°C 62% 4.3 mph WSW6.9 kmh WSW 9.9 mph15.9 kmh 29.59 in1002.0 mb - 0.00 in0.0 mm 0.00 in0.0 mm
09:40 AM 63.1°F17.3°C 49.9°F9.9°C 62% 4.7 mph SW7.6 kmh SW 7.0 mph11.3 kmh 29.59 in1002.0 mb - 0.00 in0.0 mm 0.00 in0.0 mm
09:30 AM 62.8°F17.1°C 50.4°F10.2°C 64% 3.6 mph WSW5.8 kmh WSW 8.1 mph13.0 kmh 29.59 in1002.0 mb - 0.00 in0.0 mm 0.00 in0.0 mm
09:20 AM 62.4°F16.9°C 50.5°F10.3°C 65% 5.0 mph WSW8.0 kmh WSW 10.5 mph16.9 kmh 29.56 in1001.0 mb - 0.00 in0.0 mm 0.00 in0.0 mm
09:10 AM 62.1°F16.7°C 51.0°F10.6°C 67% 2.7 mph SW4.3 kmh SW 7.0 mph11.3 kmh 29.56 in1001.0 mb - 0.00 in0.0 mm 0.00 in0.0 mm
09:00 AM 61.7°F16.5°C 51.4°F10.8°C 69% 3.1 mph WSW5.0 kmh WSW 4.6 mph7.4 kmh 29.59 in1002.0 mb - 0.00 in0.0 mm 0.00 in0.0 mm
08:50 AM 61.0°F16.1°C 51.9°F11.1°C 72% 2.7 mph WSW4.3 kmh WSW 8.1 mph13.0 kmh 29.59 in1002.0 mb - 0.00 in0.0 mm 0.00 in0.0 mm
08:40 AM 60.2°F15.7°C 51.9°F11.1°C 74% 2.7 mph WSW4.3 kmh WSW 8.1 mph13.0 kmh 29.59 in1002.0 mb - 0.00 in0.0 mm 0.00 in0.0 mm
08:30 AM 59.7°F15.4°C 51.4°F10.8°C 74% Calm Calm -- 29.59 in1002.0 mb - 0.00 in0.0 mm 0.00 in0.0 mm
08:20 AM 59.5°F15.3°C 51.2°F10.7°C 74% Calm Calm -- 29.56 in1001.0 mb - 0.00 in0.0 mm 0.00 in0.0 mm
08:10 AM 59.2°F15.1°C 50.9°F10.5°C 74% Calm Calm -- 29.56 in1001.0 mb - 0.00 in0.0 mm 0.00 in0.0 mm
08:00 AM 58.8°F14.9°C 50.5°F10.3°C 74% Calm Calm -- 29.56 in1001.0 mb - 0.00 in0.0 mm 0.00 in0.0 mm
07:50 AM 58.8°F14.9°C 50.5°F10.3°C 74% Calm Calm -- 29.56 in1001.0 mb - 0.00 in0.0 mm 0.00 in0.0 mm
07:40 AM 58.8°F14.9°C 50.2°F10.1°C 73% Calm Calm -- 29.56 in1001.0 mb - 0.00 in0.0 mm 0.00 in0.0 mm
07:30 AM 59.1°F15.1°C 50.1°F10.1°C 72% Calm Calm -- 29.56 in1001.0 mb - 0.00 in0.0 mm 0.00 in0.0 mm
07:20 AM 59.2°F15.1°C 49.8°F9.9°C 71% Calm Calm -- 29.56 in1001.0 mb - 0.00 in0.0 mm 0.00 in0.0 mm
07:10 AM 59.5°F15.3°C 49.3°F9.6°C 69% Calm Calm -- 29.56 in1001.0 mb - 0.00 in0.0 mm 0.00 in0.0 mm
07:00 AM 60.1°F15.6°C 49.5°F9.7°C 68% 2.2 mph S3.5 kmh S 4.1 mph6.6 kmh 29.56 in1001.0 mb - 0.00 in0.0 mm 0.00 in0.0 mm
06:50 AM 60.4°F15.8°C 50.2°F10.1°C 69% 4.3 mph SW6.9 kmh SW 7.0 mph11.3 kmh 29.53 in1000.0 mb - 0.00 in0.0 mm 0.00 in0.0 mm
06:30 AM 58.8°F14.9°C 53.7°F12.1°C 83% 0.9 mph SW1.4 kmh SW 8.1 mph13.0 kmh 29.56 in1001.0 mb - 0.00 in0.0 mm 0.00 in0.0 mm
06:20 AM 58.5°F14.7°C 54.0°F12.2°C 85% Calm Calm -- 29.56 in1001.0 mb - 0.00 in0.0 mm 0.00 in0.0 mm
06:10 AM 58.5°F14.7°C 54.3°F12.4°C 86% 2.7 mph SW4.3 kmh SW 4.6 mph7.4 kmh 29.56 in1001.0 mb - 0.00 in0.0 mm 0.00 in0.0 mm
06:00 AM 57.6°F14.2°C 54.0°F12.2°C 88% Calm Calm -- 29.56 in1001.0 mb - 0.00 in0.0 mm 0.00 in0.0 mm
05:50 AM 57.6°F14.2°C 54.0°F12.2°C 88% Calm Calm -- 29.53 in1000.0 mb - 0.00 in0.0 mm 0.00 in0.0 mm
05:40 AM 57.2°F14.0°C 53.7°F12.1°C 88% Calm Calm 5.2 mph8.4 kmh 29.53 in1000.0 mb - 0.00 in0.0 mm 0.00 in0.0 mm
05:30 AM 56.8°F13.8°C 53.3°F11.8°C 88% Calm Calm -- 29.56 in1001.0 mb - 0.00 in0.0 mm 0.00 in0.0 mm
05:20 AM 56.8°F13.8°C 53.3°F11.8°C 88% Calm Calm -- 29.56 in1001.0 mb - 0.00 in0.0 mm 0.00 in0.0 mm
05:10 AM 56.7°F13.7°C 53.1°F11.7°C 88% Calm Calm 4.1 mph6.6 kmh 29.56 in1001.0 mb - 0.00 in0.0 mm 0.00 in0.0 mm
05:00 AM 56.8°F13.8°C 53.3°F11.8°C 88% Calm Calm -- 29.56 in1001.0 mb - 0.00 in0.0 mm 0.00 in0.0 mm
04:50 AM 57.0°F13.9°C 53.5°F11.9°C 88% Calm Calm -- 29.56 in1001.0 mb - 0.00 in0.0 mm 0.00 in0.0 mm
04:40 AM 56.7°F13.7°C 53.1°F11.7°C 88% Calm Calm -- 29.56 in1001.0 mb - 0.00 in0.0 mm 0.00 in0.0 mm
04:30 AM 56.7°F13.7°C 52.8°F11.6°C 87% Calm Calm -- 29.56 in1001.0 mb - 0.00 in0.0 mm 0.00 in0.0 mm
04:20 AM 56.7°F13.7°C 52.8°F11.6°C 87% Calm Calm -- 29.56 in1001.0 mb - 0.00 in0.0 mm 0.00 in0.0 mm
04:10 AM 56.8°F13.8°C 52.9°F11.6°C 87% Calm Calm -- 29.56 in1001.0 mb - 0.00 in0.0 mm 0.00 in0.0 mm
04:00 AM 56.8°F13.8°C 52.7°F11.5°C 86% Calm Calm -- 29.56 in1001.0 mb - 0.00 in0.0 mm 0.00 in0.0 mm
03:50 AM 56.8°F13.8°C 52.7°F11.5°C 86% Calm Calm -- 29.56 in1001.0 mb - 0.00 in0.0 mm 0.00 in0.0 mm
03:40 AM 56.8°F13.8°C 52.7°F11.5°C 86% Calm Calm 2.9 mph4.7 kmh 29.56 in1001.0 mb - 0.00 in0.0 mm 0.00 in0.0 mm
03:30 AM 56.8°F13.8°C 52.7°F11.5°C 86% Calm Calm -- 29.59 in1002.0 mb - 0.00 in0.0 mm 0.00 in0.0 mm
03:20 AM 56.8°F13.8°C 52.7°F11.5°C 86% Calm Calm -- 29.59 in1002.0 mb - 0.00 in0.0 mm 0.00 in0.0 mm
03:10 AM 57.0°F13.9°C 52.6°F11.4°C 85% Calm Calm -- 29.59 in1002.0 mb - 0.00 in0.0 mm 0.00 in0.0 mm
03:00 AM 57.1°F13.9°C 52.3°F11.3°C 84% 0.9 mph SSE1.4 kmh SSE 3.5 mph5.6 kmh 29.59 in1002.0 mb - 0.00 in0.0 mm 0.00 in0.0 mm
02:50 AM 57.4°F14.1°C 52.3°F11.3°C 83% 3.8 mph SSE6.1 kmh SSE 7.6 mph12.2 kmh 29.56 in1001.0 mb - 0.00 in0.0 mm 0.00 in0.0 mm
02:40 AM 57.6°F14.2°C 52.4°F11.3°C 83% 0.7 mph WSW1.1 kmh WSW -- 29.56 in1001.0 mb - 0.00 in0.0 mm 0.00 in0.0 mm
02:30 AM 57.9°F14.4°C 52.8°F11.6°C 83% 2.5 mph S4.0 kmh S 5.2 mph8.4 kmh 29.59 in1002.0 mb - 0.00 in0.0 mm 0.00 in0.0 mm
02:20 AM 57.7°F14.3°C 52.6°F11.4°C 83% Calm Calm -- 29.59 in1002.0 mb - 0.00 in0.0 mm 0.00 in0.0 mm
02:10 AM 57.6°F14.2°C 52.4°F11.3°C 83% Calm Calm -- 29.59 in1002.0 mb - 0.00 in0.0 mm 0.00 in0.0 mm
02:00 AM 57.6°F14.2°C 52.1°F11.2°C 82% Calm Calm -- 29.59 in1002.0 mb - 0.00 in0.0 mm 0.00 in0.0 mm
01:50 AM 57.6°F14.2°C 52.1°F11.2°C 82% Calm Calm -- 29.62 in1003.0 mb - 0.00 in0.0 mm 0.00 in0.0 mm
01:40 AM 57.6°F14.2°C 51.4°F10.8°C 80% Calm Calm -- 29.62 in1003.0 mb - 0.00 in0.0 mm 0.00 in0.0 mm
01:30 AM 57.6°F14.2°C 51.4°F10.8°C 80% Calm Calm -- 29.62 in1003.0 mb - 0.00 in0.0 mm 0.00 in0.0 mm
01:20 AM 57.7°F14.3°C 51.6°F10.9°C 80% Calm Calm -- 29.62 in1003.0 mb - 0.00 in0.0 mm 0.00 in0.0 mm
01:10 AM 57.7°F14.3°C 51.6°F10.9°C 80% Calm Calm -- 29.62 in1003.0 mb - 0.00 in0.0 mm 0.00 in0.0 mm
01:00 AM 57.9°F14.4°C 51.4°F10.8°C 79% 0.3 mph NE0.5 kmh NE 4.1 mph6.6 kmh 29.62 in1003.0 mb - 0.00 in0.0 mm 0.00 in0.0 mm
12:50 AM 57.9°F14.4°C 51.4°F10.8°C 79% Calm Calm -- 29.62 in1003.0 mb - 0.00 in0.0 mm 0.00 in0.0 mm
12:40 AM 58.1°F14.5°C 51.6°F10.9°C 79% 3.0 mph SE4.8 kmh SE 5.2 mph8.4 kmh 29.62 in1003.0 mb - 0.00 in0.0 mm 0.00 in0.0 mm
12:30 AM 58.1°F14.5°C 51.6°F10.9°C 79% Calm Calm 4.1 mph6.6 kmh 29.62 in1003.0 mb - 0.00 in0.0 mm 0.00 in0.0 mm
12:20 AM 58.3°F14.6°C 51.4°F10.8°C 78% 2.7 mph E4.3 kmh E 4.6 mph7.4 kmh 29.62 in1003.0 mb - 0.00 in0.0 mm 0.00 in0.0 mm
12:10 AM 58.5°F14.7°C 50.2°F10.1°C 74% 2.7 mph NE4.3 kmh NE 7.6 mph12.2 kmh 29.62 in1003.0 mb - 0.00 in0.0 mm 0.00 in0.0 mm
12:00 AM 59.1°F15.1°C 49.7°F9.8°C 71% 4.1 mph NE6.6 kmh NE 5.2 mph8.4 kmh 29.62 in1003.0 mb - 0.00 in0.0 mm 0.00 in0.0 mm